This is the latest recevied weather packets stored in our database for station/object DB0SVX. If no packets are shown the sender has not sent any weather packets the latest 10 day(s).
| Time | Temp. | Humidity | Pressure | Rain* | Wind** | Luminosity | Snow |
|---|---|---|---|---|---|---|---|
| 1777901121 | 29.44° C | 27% | 1010.7 hPa | 0 mm | - | - | - |
| 1777900221 | 28.89° C | 27% | 1011 hPa | 0 mm | - | - | - |
| 1777899321 | 27.22° C | 28% | 1011 hPa | 0 mm | - | - | - |
| 1777898421 | 27.22° C | 28% | 1011.2 hPa | 0 mm | - | - | - |
| 1777897521 | 27.22° C | 28% | 1011.2 hPa | 0 mm | - | - | - |
| 1777896621 | 27.78° C | 27% | 1011.2 hPa | 0 mm | - | - | - |
| 1777895721 | 29.44° C | 26% | 1011.4 hPa | 0 mm | - | - | - |
| 1777894821 | 28.33° C | 27% | 1011.5 hPa | 0 mm | - | - | - |
| 1777893921 | 27.78° C | 27% | 1011.5 hPa | 0 mm | - | - | - |
| 1777893021 | 28.33° C | 27% | 1011.5 hPa | 0 mm | - | - | - |
| 1777892121 | 28.33° C | 27% | 1011.7 hPa | 0 mm | - | - | - |
| 1777891221 | 30° C | 25% | 1011.9 hPa | 0 mm | - | - | - |
| 1777890321 | 31.11° C | 25% | 1012 hPa | 0 mm | - | - | - |
| 1777889421 | 30° C | 26% | 1012.2 hPa | 0 mm | - | - | - |
| 1777888521 | 28.33° C | 27% | 1012.4 hPa | 0 mm | - | - | - |
| 1777887621 | 27.22° C | 28% | 1012.5 hPa | 0 mm | - | - | - |
| 1777886721 | 27.78° C | 28% | 1012.7 hPa | 0 mm | - | - | - |
| 1777885821 | 27.22° C | 30% | 1012.7 hPa | 0 mm | - | - | - |
| 1777884921 | 25.56° C | 30% | 1012.9 hPa | 0 mm | - | - | - |
| 1777884021 | 25° C | 32% | 1013 hPa | 0 mm | - | - | - |
| 1777883121 | 23.89° C | 33% | 1013.2 hPa | 0 mm | - | - | - |
| 1777882221 | 23.89° C | 34% | 1013.2 hPa | 0 mm | - | - | - |
| 1777881321 | 18.89° C | 40% | 1013.2 hPa | 0 mm | - | - | - |
| 1777880421 | 18.33° C | 41% | 1013.4 hPa | 0 mm | - | - | - |
| 1777879521 | 18.33° C | 41% | 1013.5 hPa | 0 mm | - | - | - |
* Rain latest hour (hover to see other rain measurements)
** Current wind speed in m/s (hover to see current wind gust speed)